Time;durP1;ratioP1;P1;durP2;ratioP2;P2;SDS_P1;SDS_P2;PMS_P1;PMS_P2;Temp;Humidity;BMP_temperature;BMP_pressure;BME280_temperature;BME280_humidity;BME280_pressure;Samples;Min_cycle;Max_cycle;Signal;HPM_P1;HPM_P2
2022/01/20 00:00:21;;;;;;;1.58;1.05;;;8.40;73.80;;;;;;5006054;28;20085;-78
2022/01/20 00:02:58;;;;;;;4.15;1.08;;;8.40;74.00;;;;;;5011249;28;20077;-78
2022/01/20 00:27:06;;;;;;;2.53;1.17;;;8.10;74.90;;;;;;5004842;28;20080;-78
2022/01/20 00:29:46;;;;;;;2.60;1.20;;;8.10;74.80;;;;;;5005080;28;20497;-77
2022/01/20 00:32:13;;;;;;;2.92;1.30;;;8.10;74.90;;;;;;5007032;28;20026;-77
2022/01/20 00:35:27;;;;;;;2.78;1.10;;;8.10;74.90;;;;;;5007327;28;20507;-77
2022/01/20 00:37:30;;;;;;;2.25;1.20;;;8.10;75.00;;;;;;5008814;28;20141;-78
2022/01/20 00:39:57;;;;;;;1.85;0.90;;;8.10;75.50;;;;;;5005289;28;20032;-78
2022/01/20 00:42:23;;;;;;;2.08;1.15;;;8.00;75.40;;;;;;5005265;28;20034;-77
2022/01/20 00:44:49;;;;;;;1.92;1.10;;;8.00;75.30;;;;;;5003881;28;20022;-77
2022/01/20 00:47:16;;;;;;;1.98;1.10;;;8.00;75.50;;;;;;5009664;28;20038;-77
2022/01/20 00:49:42;;;;;;;1.45;1.08;;;8.00;75.50;;;;;;5003351;28;20449;-77
2022/01/20 00:52:09;;;;;;;2.95;1.30;;;8.00;75.60;;;;;;5004316;28;20140;-77
2022/01/20 00:54:35;;;;;;;1.98;1.00;;;7.90;75.90;;;;;;5003468;28;20084;-77
2022/01/20 00:57:02;;;;;;;1.88;1.25;;;7.90;76.10;;;;;;5011383;28;20042;-78
2022/01/20 00:59:29;;;;;;;2.75;1.13;;;7.80;76.30;;;;;;5005551;28;20030;-77
2022/01/20 01:01:59;;;;;;;2.03;1.33;;;7.80;76.20;;;;;;5012630;28;20503;-77
2022/01/20 01:04:27;;;;;;;2.78;1.42;;;7.80;76.40;;;;;;5006849;28;20016;-78
2022/01/20 01:09:28;;;;;;;2.97;1.33;;;7.80;76.30;;;;;;4994359;28;20057;-77
2022/01/20 01:11:59;;;;;;;1.92;1.30;;;7.80;76.30;;;;;;5012734;28;20112;-77
2022/01/20 01:14:24;;;;;;;2.92;1.33;;;7.80;76.40;;;;;;5013102;28;20552;-77
2022/01/20 01:24:39;;;;;;;3.05;1.50;;;7.80;76.30;;;;;;5017045;28;20017;-77
2022/01/20 01:27:06;;;;;;;2.60;1.50;;;7.90;76.70;;;;;;5016291;28;20415;-77
2022/01/20 01:32:12;;;;;;;3.65;1.58;;;7.90;76.00;;;;;;5016682;28;20519;-78
2022/01/20 01:34:41;;;;;;;3.72;1.48;;;7.90;76.10;;;;;;5025692;28;20022;-77
2022/01/20 01:37:24;;;;;;;3.55;1.52;;;7.90;76.10;;;;;;5024083;28;20046;-78
2022/01/20 01:39:49;;;;;;;2.58;1.38;;;7.80;75.80;;;;;;5014451;28;20029;-77
2022/01/20 01:42:21;;;;;;;3.03;1.27;;;7.80;76.30;;;;;;5025626;28;20100;-76
2022/01/20 01:44:48;;;;;;;2.60;1.42;;;7.80;76.00;;;;;;5025578;28;20113;-77
2022/01/20 01:47:14;;;;;;;2.63;1.40;;;7.80;76.10;;;;;;5030019;28;20033;-77
2022/01/20 01:49:39;;;;;;;2.55;1.33;;;7.80;76.20;;;;;;5027188;28;20022;-77
2022/01/20 01:52:05;;;;;;;2.17;1.30;;;7.70;76.40;;;;;;5025578;28;20040;-77
2022/01/20 01:54:32;;;;;;;2.40;1.40;;;7.70;76.30;;;;;;5024640;28;20079;-77
2022/01/20 01:57:01;;;;;;;3.15;1.42;;;7.80;76.30;;;;;;5013610;28;20041;-78
2022/01/20 01:59:27;;;;;;;2.95;1.50;;;7.80;76.00;;;;;;5018376;28;20048;-77
2022/01/20 02:01:53;;;;;;;3.30;1.60;;;7.80;76.20;;;;;;5018757;28;20022;-78
2022/01/20 02:04:21;;;;;;;1.67;1.27;;;7.80;76.20;;;;;;5016755;28;20030;-78
2022/01/20 02:19:57;;;;;;;1.67;1.13;;;7.50;77.00;;;;;;5018943;28;20037;-77
2022/01/20 02:22:24;;;;;;;2.65;1.40;;;7.50;77.30;;;;;;5016474;28;20114;-77
2022/01/20 02:24:50;;;;;;;3.13;1.40;;;7.50;77.50;;;;;;5013122;28;20032;-78
2022/01/20 02:27:15;;;;;;;1.90;1.35;;;7.40;77.80;;;;;;5014619;28;20034;-78
2022/01/20 02:29:41;;;;;;;2.40;1.30;;;7.40;77.70;;;;;;5019028;28;20071;-77
2022/01/20 02:32:08;;;;;;;2.97;1.30;;;7.40;77.90;;;;;;5019388;28;20057;-77
2022/01/20 02:34:34;;;;;;;3.80;1.48;;;7.40;78.00;;;;;;5019760;28;20083;-77
2022/01/20 02:37:04;;;;;;;3.20;1.50;;;7.30;77.40;;;;;;5017188;28;20099;-77
2022/01/20 02:47:15;;;;;;;2.65;1.50;;;7.50;75.70;;;;;;5022165;28;20026;-77
2022/01/20 02:49:41;;;;;;;3.03;1.45;;;7.50;75.70;;;;;;5019033;28;20113;-77
2022/01/20 02:52:07;;;;;;;3.50;1.50;;;7.50;75.50;;;;;;5017749;28;20112;-77
2022/01/20 02:54:33;;;;;;;3.10;1.50;;;7.50;75.20;;;;;;5019741;28;20068;-78
2022/01/20 02:56:58;;;;;;;2.13;1.20;;;7.50;75.30;;;;;;5020598;28;20065;-78
2022/01/20 02:59:24;;;;;;;4.00;1.50;;;7.50;75.20;;;;;;5021015;28;20025;-77
2022/01/20 03:01:50;;;;;;;1.83;1.10;;;7.50;75.00;;;;;;5019294;28;20021;-77
2022/01/20 03:04:16;;;;;;;2.10;1.38;;;7.50;74.80;;;;;;5016028;28;20025;-77
2022/01/20 03:06:42;;;;;;;3.10;1.30;;;7.40;74.80;;;;;;5020660;28;20049;-77
2022/01/20 03:09:08;;;;;;;2.67;1.30;;;7.40;74.80;;;;;;5020694;28;20030;-77
2022/01/20 03:11:34;;;;;;;2.65;1.40;;;7.40;74.40;;;;;;5019746;28;20559;-77
2022/01/20 03:14:00;;;;;;;1.92;1.30;;;7.40;74.50;;;;;;5020028;28;20025;-78
2022/01/20 03:16:26;;;;;;;4.30;1.55;;;7.30;74.80;;;;;;5014192;28;20035;-77
2022/01/20 03:18:51;;;;;;;1.98;1.30;;;7.30;74.90;;;;;;5013426;28;20037;-77
2022/01/20 03:21:17;;;;;;;3.20;1.60;;;7.30;74.90;;;;;;5019885;28;20030;-77
2022/01/20 03:23:43;;;;;;;1.98;1.27;;;7.20;75.00;;;;;;5019583;28;20058;-77
2022/01/20 03:26:09;;;;;;;3.20;1.50;;;7.10;75.30;;;;;;5020096;28;20029;-77
2022/01/20 03:28:35;;;;;;;2.65;1.52;;;7.10;75.40;;;;;;5021991;28;20554;-77
2022/01/20 03:31:01;;;;;;;3.05;1.60;;;7.10;76.00;;;;;;5020438;28;20025;-77
2022/01/20 03:33:26;;;;;;;2.72;1.30;;;7.00;76.20;;;;;;5018326;28;20030;-77
2022/01/20 03:35:53;;;;;;;3.20;1.58;;;7.00;75.90;;;;;;5022680;28;20029;-77
2022/01/20 03:38:19;;;;;;;4.05;1.52;;;7.00;76.00;;;;;;5020939;28;20022;-77
2022/01/20 03:40:45;;;;;;;2.35;1.48;;;7.00;75.50;;;;;;5023743;28;20032;-77
2022/01/20 03:43:11;;;;;;;4.15;1.80;;;7.00;75.60;;;;;;5020969;28;20025;-77
2022/01/20 03:45:38;;;;;;;3.63;1.90;;;7.00;75.90;;;;;;5017520;28;20407;-78
2022/01/20 03:48:10;;;;;;;4.10;2.20;;;7.00;75.70;;;;;;5020503;28;20034;-78
2022/01/20 03:53:20;;;;;;;;;;;6.80;76.00;;;;;;5019330;28;20109;-77
2022/01/20 03:55:46;;;;;;;3.40;1.60;;;6.80;76.50;;;;;;5022978;28;20345;-77
2022/01/20 03:58:12;;;;;;;3.42;1.63;;;6.70;76.40;;;;;;5018815;28;20030;-78
2022/01/20 04:00:37;;;;;;;3.88;1.90;;;6.70;76.50;;;;;;5016692;28;20100;-77
2022/01/20 04:03:03;;;;;;;3.03;1.50;;;6.60;76.90;;;;;;5020067;28;20033;-77
2022/01/20 04:05:29;;;;;;;3.15;1.48;;;6.60;76.70;;;;;;5020094;28;20168;-77
2022/01/20 04:07:55;;;;;;;3.28;1.90;;;6.50;77.00;;;;;;5022476;28;20132;-77
2022/01/20 04:10:20;;;;;;;4.55;2.00;;;6.50;77.50;;;;;;5020063;28;20034;-78
2022/01/20 04:12:46;;;;;;;4.05;2.00;;;6.50;77.70;;;;;;5013745;28;20052;-77
2022/01/20 04:15:15;;;;;;;4.85;2.17;;;6.50;77.20;;;;;;5017673;28;20037;-77
2022/01/20 04:17:43;;;;;;;5.15;1.92;;;6.50;77.80;;;;;;5013616;28;20837;-77
2022/01/20 04:20:09;;;;;;;4.05;1.75;;;6.40;77.50;;;;;;5018275;28;20029;-77
2022/01/20 04:22:36;;;;;;;4.03;1.75;;;6.40;78.10;;;;;;5013151;28;20105;-77
2022/01/20 04:25:03;;;;;;;4.95;2.10;;;6.40;77.70;;;;;;5015739;28;20041;-77
2022/01/20 04:27:28;;;;;;;3.22;1.80;;;6.40;77.70;;;;;;5017036;28;20026;-77
2022/01/20 04:29:54;;;;;;;2.97;1.70;;;6.30;77.60;;;;;;5016258;28;20052;-78
2022/01/20 04:32:20;;;;;;;4.20;1.98;;;6.20;78.00;;;;;;5016926;28;20049;-77
2022/01/20 04:34:46;;;;;;;4.10;2.08;;;6.10;78.40;;;;;;5014950;28;20041;-77
2022/01/20 04:37:12;;;;;;;4.57;2.00;;;6.10;78.80;;;;;;5013258;28;20088;-78
2022/01/20 04:39:44;;;;;;;4.38;2.10;;;6.10;78.80;;;;;;5015839;28;20072;-77
2022/01/20 04:42:10;;;;;;;3.97;2.00;;;6.10;78.60;;;;;;5015317;28;20030;-77
2022/01/20 04:58:05;;;;;;;3.15;1.70;;;6.00;80.10;;;;;;5017032;28;20067;-78
2022/01/20 05:00:31;;;;;;;5.20;1.98;;;6.00;80.30;;;;;;5013295;28;20066;-77
2022/01/20 05:02:57;;;;;;;5.28;2.15;;;6.00;80.10;;;;;;5017646;28;20531;-77
2022/01/20 05:05:24;;;;;;;5.70;2.65;;;6.00;80.10;;;;;;5019201;28;20026;-77
2022/01/20 05:07:49;;;;;;;5.03;2.15;;;6.00;80.20;;;;;;5018739;28;20542;-77
2022/01/20 05:10:15;;;;;;;3.45;1.70;;;5.90;80.20;;;;;;5014408;28;20034;-77
2022/01/20 05:15:21;;;;;;;5.43;2.28;;;5.90;80.60;;;;;;5015083;28;20076;-77
2022/01/20 05:17:47;;;;;;;4.90;2.13;;;5.90;80.60;;;;;;5018367;28;20053;-77
2022/01/20 05:20:12;;;;;;;5.82;2.10;;;5.90;80.60;;;;;;5019626;28;20104;-78
2022/01/20 05:22:38;;;;;;;5.15;1.92;;;5.90;80.70;;;;;;5022388;28;20413;-77
2022/01/20 05:25:05;;;;;;;4.07;1.85;;;6.00;80.70;;;;;;5016424;28;20022;-77
2022/01/20 05:27:31;;;;;;;4.90;1.83;;;6.00;80.60;;;;;;5017412;28;20084;-77
2022/01/20 05:29:58;;;;;;;5.75;1.75;;;5.90;80.50;;;;;;5019515;28;20496;-77
2022/01/20 05:32:24;;;;;;;3.92;1.90;;;5.90;80.70;;;;;;5020181;28;20076;-78
2022/01/20 05:34:50;;;;;;;3.72;1.80;;;5.90;81.00;;;;;;5021012;28;20029;-77
2022/01/20 05:37:16;;;;;;;3.33;1.83;;;5.90;80.80;;;;;;5017563;28;20037;-78
2022/01/20 05:39:42;;;;;;;4.88;1.85;;;5.80;81.10;;;;;;5015899;28;20032;-78
2022/01/20 05:42:08;;;;;;;5.38;2.03;;;5.90;81.60;;;;;;5020114;28;20052;-77
2022/01/20 05:44:34;;;;;;;5.32;2.10;;;5.80;81.40;;;;;;5012909;28;20025;-77
2022/01/20 05:47:06;;;;;;;4.88;2.10;;;5.80;81.50;;;;;;5024055;28;20045;-77
2022/01/20 05:49:32;;;;;;;5.38;2.13;;;5.80;81.50;;;;;;5011862;28;20100;-77
2022/01/20 05:51:58;;;;;;;5.97;2.40;;;5.80;81.70;;;;;;5015418;28;20514;-78
2022/01/20 05:54:24;;;;;;;6.68;2.10;;;5.80;81.60;;;;;;5015340;28;20033;-78
2022/01/20 05:56:51;;;;;;;4.15;1.98;;;5.80;81.40;;;;;;5012707;28;20073;-78
2022/01/20 05:59:18;;;;;;;4.93;1.90;;;5.80;81.30;;;;;;5016067;28;20045;-77
2022/01/20 06:01:51;;;;;;;4.47;2.40;;;5.80;81.10;;;;;;5012968;28;20033;-77
2022/01/20 06:04:17;;;;;;;5.70;2.10;;;5.80;81.20;;;;;;5013364;28;20029;-77
2022/01/20 06:06:44;;;;;;;3.83;2.08;;;5.80;81.60;;;;;;5015219;28;20101;-77
2022/01/20 06:09:10;;;;;;;3.83;1.80;;;5.70;81.70;;;;;;5014153;28;20041;-78
2022/01/20 06:11:37;;;;;;;5.10;2.20;;;5.60;82.30;;;;;;5011762;28;20025;-77
2022/01/20 06:14:05;;;;;;;4.30;2.13;;;5.60;82.10;;;;;;5016236;28;20037;-78
2022/01/20 06:16:32;;;;;;;3.92;1.90;;;5.60;82.20;;;;;;5013293;28;20038;-77
2022/01/20 06:18:58;;;;;;;3.70;2.03;;;5.50;82.20;;;;;;5012876;28;20544;-77
2022/01/20 06:21:24;;;;;;;6.78;2.38;;;5.40;82.50;;;;;;5016855;28;20056;-77
2022/01/20 06:23:50;;;;;;;6.30;2.33;;;5.30;82.60;;;;;;5013928;28;20058;-77
2022/01/20 06:26:16;;;;;;;6.78;3.00;;;5.30;83.90;;;;;;5018168;28;20442;-77
2022/01/20 06:28:42;;;;;;;7.32;3.10;;;5.30;82.80;;;;;;5016261;28;20053;-77
2022/01/20 06:31:09;;;;;;;5.70;2.55;;;5.20;82.50;;;;;;5017708;28;20526;-77
2022/01/20 06:33:35;;;;;;;6.00;2.90;;;5.30;82.50;;;;;;5017255;28;20041;-77
2022/01/20 06:36:01;;;;;;;4.05;2.20;;;5.10;82.70;;;;;;5015986;28;20030;-77
2022/01/20 06:38:26;;;;;;;4.90;2.10;;;5.00;83.80;;;;;;5022662;28;20041;-77
2022/01/20 06:40:52;;;;;;;4.65;2.17;;;5.00;84.00;;;;;;5024663;28;20028;-77
2022/01/20 06:43:18;;;;;;;5.57;2.63;;;5.00;83.90;;;;;;5018880;28;20108;-77
2022/01/20 06:45:44;;;;;;;6.00;2.25;;;5.00;84.40;;;;;;5019006;28;20131;-78
2022/01/20 06:48:10;;;;;;;6.30;2.58;;;5.00;84.40;;;;;;5022405;28;20022;-78
2022/01/20 06:50:35;;;;;;;10.55;2.85;;;5.00;84.20;;;;;;5020366;28;20559;-77
2022/01/20 06:53:01;;;;;;;5.65;2.30;;;5.00;84.60;;;;;;5025329;28;20111;-73
2022/01/20 06:55:27;;;;;;;6.22;2.53;;;5.00;84.90;;;;;;5019141;28;20060;-73
2022/01/20 06:57:53;;;;;;;4.10;2.38;;;5.00;84.50;;;;;;5017582;28;20036;-74
2022/01/20 07:00:21;;;;;;;5.60;2.85;;;5.10;84.70;;;;;;5022157;28;20040;-72
2022/01/20 07:02:47;;;;;;;6.25;2.60;;;5.10;84.90;;;;;;5019308;28;20400;-72
2022/01/20 07:05:15;;;;;;;8.05;3.00;;;5.20;84.40;;;;;;5024548;28;20105;-73
2022/01/20 07:07:41;;;;;;;5.28;2.40;;;5.20;84.10;;;;;;5022769;28;20410;-72
2022/01/20 07:10:09;;;;;;;4.38;2.40;;;5.20;84.40;;;;;;5018582;28;20456;-72
2022/01/20 07:12:35;;;;;;;5.47;2.75;;;5.30;84.10;;;;;;5019487;28;20030;-73
2022/01/20 07:15:01;;;;;;;5.72;2.72;;;5.30;84.10;;;;;;5014505;28;20078;-72
2022/01/20 07:17:26;;;;;;;5.80;2.60;;;5.30;84.50;;;;;;5017993;28;20428;-72
2022/01/20 07:19:52;;;;;;;5.35;2.75;;;5.20;84.20;;;;;;5015380;28;20050;-72
2022/01/20 07:22:18;;;;;;;5.97;3.40;;;5.20;83.80;;;;;;5016309;28;20045;-72
2022/01/20 07:24:44;;;;;;;7.97;3.92;;;5.10;83.90;;;;;;5014947;28;20467;-72
2022/01/20 07:27:09;;;;;;;7.43;3.63;;;5.10;84.10;;;;;;5014484;28;20526;-72
2022/01/20 07:29:35;;;;;;;12.60;5.15;;;5.00;84.50;;;;;;5013631;28;20010;-72
2022/01/20 07:32:03;;;;;;;11.43;5.00;;;5.00;84.80;;;;;;5016258;28;20037;-72
2022/01/20 07:34:30;;;;;;;14.05;6.10;;;5.00;85.00;;;;;;5013111;28;20026;-72
2022/01/20 07:36:56;;;;;;;20.17;5.72;;;5.00;85.70;;;;;;5012119;28;20162;-72
2022/01/20 07:39:22;;;;;;;8.93;4.50;;;5.00;85.40;;;;;;5019248;28;20030;-71
2022/01/20 07:41:48;;;;;;;10.38;4.15;;;5.10;85.60;;;;;;5019105;28;20018;-72
2022/01/20 07:44:17;;;;;;;7.55;4.22;;;5.20;85.70;;;;;;5020742;28;20044;-72
2022/01/20 07:46:44;;;;;;;11.05;4.35;;;5.20;85.50;;;;;;5018001;28;20484;-72
2022/01/20 07:49:10;;;;;;;8.50;4.75;;;5.20;85.40;;;;;;5015309;28;20634;-72
2022/01/20 07:51:35;;;;;;;10.05;4.72;;;5.20;85.00;;;;;;5016622;28;20124;-72
2022/01/20 07:54:01;;;;;;;8.65;4.45;;;5.20;85.80;;;;;;5018901;28;20026;-72
2022/01/20 07:56:27;;;;;;;12.10;5.53;;;5.20;85.20;;;;;;5020005;28;20072;-73
2022/01/20 07:58:53;;;;;;;10.50;5.18;;;5.20;85.40;;;;;;5018052;28;20499;-72
2022/01/20 08:01:22;;;;;;;14.38;6.93;;;5.30;85.30;;;;;;5011965;28;20029;-72
2022/01/20 08:03:48;;;;;;;22.40;9.68;;;5.30;86.60;;;;;;5014775;28;20029;-72
2022/01/20 08:06:14;;;;;;;25.33;12.07;;;5.50;86.00;;;;;;5018135;28;20034;-72
2022/01/20 08:08:39;;;;;;;24.17;9.93;;;5.50;84.50;;;;;;5016025;28;20112;-72
2022/01/20 08:11:05;;;;;;;15.77;8.85;;;5.60;83.80;;;;;;5013377;28;20105;-72
2022/01/20 08:13:31;;;;;;;19.73;8.95;;;5.60;83.80;;;;;;5013504;28;20117;-72
2022/01/20 08:15:57;;;;;;;20.42;7.78;;;5.60;83.80;;;;;;5013310;28;20476;-72
2022/01/20 08:18:22;;;;;;;18.15;8.77;;;5.70;83.90;;;;;;5012177;28;20041;-72
2022/01/20 08:20:48;;;;;;;24.38;9.80;;;5.70;83.70;;;;;;5017991;28;20489;-72
2022/01/20 08:23:14;;;;;;;20.33;9.27;;;5.80;83.30;;;;;;5020206;28;20025;-72
2022/01/20 08:25:39;;;;;;;21.67;7.53;;;5.80;83.40;;;;;;5015076;28;20057;-72
2022/01/20 08:28:05;;;;;;;26.75;8.07;;;5.80;82.90;;;;;;5012114;28;20496;-73
2022/01/20 08:30:31;;;;;;;16.55;6.00;;;5.90;83.20;;;;;;5017533;28;20030;-72
2022/01/20 08:32:57;;;;;;;12.20;6.15;;;6.00;82.70;;;;;;5017460;28;20033;-72
2022/01/20 08:35:23;;;;;;;14.48;6.55;;;6.30;82.70;;;;;;5019808;28;20053;-72
2022/01/20 08:37:49;;;;;;;19.00;7.13;;;7.00;83.60;;;;;;5016760;28;20108;-72
2022/01/20 08:40:18;;;;;;;14.50;6.15;;;9.50;74.50;;;;;;5012978;28;20453;-72
2022/01/20 08:42:46;;;;;;;12.95;5.50;;;12.50;63.40;;;;;;5016867;28;20403;-72
2022/01/20 08:45:14;;;;;;;11.05;4.97;;;14.70;56.50;;;;;;5017429;28;20017;-70
2022/01/20 08:47:40;;;;;;;8.18;3.85;;;16.30;53.90;;;;;;5017153;28;20446;-70
2022/01/20 08:50:07;;;;;;;7.95;3.42;;;17.50;50.50;;;;;;5020504;28;20069;-70
2022/01/20 08:52:32;;;;;;;8.80;4.25;;;18.60;48.20;;;;;;5013675;28;20026;-71
2022/01/20 08:54:59;;;;;;;9.02;5.22;;;19.00;46.60;;;;;;5013468;28;20030;-71
2022/01/20 08:57:26;;;;;;;15.10;8.25;;;19.60;46.10;;;;;;5016432;28;20424;-70
2022/01/20 08:59:52;;;;;;;20.77;10.93;;;19.80;44.80;;;;;;5018365;28;20037;-70
2022/01/20 09:02:18;;;;;;;11.57;7.00;;;19.70;44.20;;;;;;5020027;28;20484;-71
2022/01/20 09:04:44;;;;;;;14.30;8.23;;;18.70;45.50;;;;;;5016472;28;20056;-70
2022/01/20 09:07:10;;;;;;;9.65;5.38;;;17.70;47.40;;;;;;5013829;28;20083;-70
2022/01/20 09:09:42;;;;;;;8.40;6.05;;;16.80;48.70;;;;;;5010447;28;20030;-70
2022/01/20 09:17:28;;;;;;;7.10;4.20;;;14.10;55.30;;;;;;5025922;28;20079;-70
2022/01/20 09:19:55;;;;;;;5.78;2.78;;;13.50;57.30;;;;;;5018849;28;20029;-70
2022/01/20 09:22:22;;;;;;;5.72;3.10;;;13.20;58.70;;;;;;5017745;28;20087;-70
2022/01/20 09:24:48;;;;;;;5.93;2.22;;;13.20;59.40;;;;;;5014023;28;20029;-70
2022/01/20 09:27:14;;;;;;;9.75;4.20;;;13.10;59.10;;;;;;5012410;28;20034;-70
2022/01/20 09:29:41;;;;;;;4.57;2.30;;;13.20;59.40;;;;;;5017370;28;20030;-69
2022/01/20 09:32:09;;;;;;;5.00;2.00;;;13.20;59.10;;;;;;5020144;28;20037;-70
2022/01/20 09:34:35;;;;;;;5.63;2.45;;;13.20;59.20;;;;;;5009266;28;20030;-70
2022/01/20 09:37:01;;;;;;;4.90;2.40;;;13.20;59.10;;;;;;5008658;28;20419;-70
2022/01/20 09:39:26;;;;;;;4.38;2.17;;;13.00;59.40;;;;;;5008119;28;20458;-69
2022/01/20 09:41:52;;;;;;;5.47;2.00;;;12.90;60.00;;;;;;5015687;28;20030;-70
2022/01/20 09:44:19;;;;;;;4.35;1.90;;;12.80;59.80;;;;;;5018004;28;20025;-69
2022/01/20 09:46:46;;;;;;;5.72;1.90;;;12.80;60.10;;;;;;5013030;28;20024;-69
2022/01/20 09:49:12;;;;;;;5.53;2.10;;;12.90;60.00;;;;;;5014245;28;20032;-70
2022/01/20 09:51:39;;;;;;;4.80;2.05;;;12.90;60.10;;;;;;5018271;28;20133;-70
2022/01/20 09:54:05;;;;;;;5.68;1.90;;;13.00;60.20;;;;;;5018189;28;20026;-70
2022/01/20 09:56:32;;;;;;;7.13;2.17;;;13.10;60.20;;;;;;5002323;28;20149;-70
2022/01/20 09:58:58;;;;;;;6.80;2.70;;;13.10;59.90;;;;;;5012636;28;20025;-70
2022/01/20 10:01:35;;;;;;;5.68;2.97;;;13.20;60.00;;;;;;5002990;28;20089;-69
2022/01/20 10:04:00;;;;;;;7.97;2.55;;;13.30;60.10;;;;;;5005899;28;20037;-70
2022/01/20 10:06:26;;;;;;;9.40;3.10;;;13.40;59.90;;;;;;5012635;28;20030;-69
2022/01/20 10:09:02;;;;;;;6.55;2.45;;;13.40;59.60;;;;;;5014907;28;20041;-69
2022/01/20 10:11:29;;;;;;;6.32;2.70;;;13.50;59.40;;;;;;5010761;28;20030;-70
2022/01/20 10:14:00;;;;;;;5.40;2.20;;;13.50;59.60;;;;;;5013920;28;20035;-69
2022/01/20 10:16:30;;;;;;;7.63;2.40;;;13.60;59.20;;;;;;5006367;28;20052;-69
2022/01/20 10:18:57;;;;;;;5.72;2.38;;;13.70;59.40;;;;;;5005471;28;20044;-69
2022/01/20 10:21:31;;;;;;;7.45;2.97;;;13.70;58.70;;;;;;5011703;28;20036;-70
2022/01/20 10:24:07;;;;;;;;;;;13.80;58.60;;;;;;5014004;28;20030;-70
2022/01/20 10:26:34;;;;;;;6.82;2.95;;;13.90;58.30;;;;;;5016872;28;19909;-70
2022/01/20 10:29:09;;;;;;;4.13;1.90;;;13.90;57.80;;;;;;5014808;28;20064;-70
2022/01/20 10:31:46;;;;;;;3.45;1.60;;;13.90;57.60;;;;;;5016416;28;20048;-70
2022/01/20 10:34:31;;;;;;;3.92;1.35;;;14.00;57.80;;;;;;5012021;28;20492;-70
2022/01/20 10:36:59;;;;;;;;;;;14.00;57.50;;;;;;5005310;28;20068;-70
2022/01/20 10:39:33;;;;;;;3.42;1.20;;;14.00;57.20;;;;;;5008082;28;20300;-70
2022/01/20 10:42:04;;;;;;;7.70;1.37;;;13.90;56.80;;;;;;5013429;28;20042;-70
2022/01/20 10:44:52;;;;;;;4.43;1.23;;;13.80;57.00;;;;;;5016490;28;20513;-70
2022/01/20 10:47:21;;;;;;;2.78;1.25;;;13.90;57.80;;;;;;5014543;28;20037;-70
2022/01/20 10:49:48;;;;;;;3.20;1.27;;;13.90;57.80;;;;;;5014550;28;20049;-70
2022/01/20 10:52:17;;;;;;;2.55;1.10;;;14.00;57.30;;;;;;5016233;28;20625;-70
2022/01/20 10:54:54;;;;;;;3.20;1.33;;;14.00;56.30;;;;;;5012788;28;20473;-70
2022/01/20 10:57:30;;;;;;;6.45;1.27;;;14.10;57.20;;;;;;5012871;28;20041;-69
2022/01/20 11:00:02;;;;;;;2.50;1.10;;;14.20;56.50;;;;;;5003184;28;20040;-70
2022/01/20 11:02:29;;;;;;;6.13;1.40;;;14.20;56.20;;;;;;5014676;28;20030;-70
2022/01/20 11:04:59;;;;;;;6.35;2.10;;;14.30;55.70;;;;;;5018189;28;20501;-70
2022/01/20 11:07:28;;;;;;;6.40;1.50;;;14.40;55.80;;;;;;5019425;28;20030;-70
2022/01/20 11:10:03;;;;;;;5.05;1.23;;;14.50;55.30;;;;;;5006203;28;20026;-70
2022/01/20 11:12:30;;;;;;;3.40;1.10;;;14.50;55.20;;;;;;5017446;28;20034;-70
2022/01/20 11:14:57;;;;;;;3.72;1.20;;;14.50;55.40;;;;;;5019473;28;20120;-70
2022/01/20 11:17:26;;;;;;;5.85;1.38;;;14.60;55.20;;;;;;5011965;28;20064;-70
2022/01/20 11:19:55;;;;;;;4.63;1.70;;;14.80;55.10;;;;;;5013953;28;20017;-70
2022/01/20 11:22:21;;;;;;;3.38;1.30;;;14.80;55.90;;;;;;5012638;28;20508;-70
2022/01/20 11:24:59;;;;;;;3.00;1.33;;;15.00;55.30;;;;;;5015796;28;20077;-70
2022/01/20 11:27:39;;;;;;;3.42;1.30;;;15.20;55.50;;;;;;5017734;28;20034;-70
2022/01/20 11:30:26;;;;;;;2.17;1.10;;;15.30;54.10;;;;;;5017565;28;20025;-71
2022/01/20 11:33:03;;;;;;;3.55;1.23;;;15.40;53.60;;;;;;5017452;28;20036;-71
2022/01/20 11:35:48;;;;;;;3.72;1.10;;;15.50;54.10;;;;;;5013179;28;20030;-70
2022/01/20 11:38:14;;;;;;;;;;;15.70;53.40;;;;;;5014044;28;20111;-70
2022/01/20 11:41:02;;;;;;;4.68;1.35;;;15.80;53.00;;;;;;5011782;28;19913;-70
2022/01/20 11:43:37;;;;;;;2.50;0.90;;;16.00;52.40;;;;;;5016140;28;20558;-71
2022/01/20 11:46:18;;;;;;;3.03;0.95;;;16.20;52.20;;;;;;5007425;28;20036;-70
2022/01/20 11:49:10;;;;;;;2.47;0.90;;;16.40;51.50;;;;;;5011087;28;20494;-71
2022/01/20 11:51:49;;;;;;;1.48;0.85;;;16.40;51.10;;;;;;5009898;28;20062;-72
2022/01/20 11:54:37;;;;;;;1.10;0.80;;;16.60;51.20;;;;;;5015658;28;20037;-71
2022/01/20 11:57:13;;;;;;;2.72;0.90;;;16.70;51.80;;;;;;5006147;28;20504;-73
2022/01/20 11:59:56;;;;;;;2.13;1.00;;;16.70;50.00;;;;;;5016125;28;20029;-71
2022/01/20 12:02:39;;;;;;;3.15;1.00;;;16.80;50.90;;;;;;5016796;28;20032;-70
2022/01/20 12:05:26;;;;;;;2.40;0.88;;;17.00;50.80;;;;;;5014860;28;20022;-71
2022/01/20 12:08:04;;;;;;;3.45;1.33;;;17.10;50.20;;;;;;5017488;28;20040;-71
2022/01/20 12:10:30;;;;;;;3.60;1.08;;;17.20;50.40;;;;;;5013957;28;20408;-71
2022/01/20 12:13:25;;;;;;;3.00;1.20;;;17.30;50.10;;;;;;5009685;28;20030;-71
2022/01/20 12:16:01;;;;;;;3.08;1.00;;;17.40;50.30;;;;;;5000806;28;20401;-71
2022/01/20 12:18:29;;;;;;;1.98;1.05;;;17.70;51.20;;;;;;5013617;28;20471;-71
2022/01/20 12:20:58;;;;;;;1.35;0.80;;;18.10;49.40;;;;;;5016901;28;20037;-71
2022/01/20 12:23:25;;;;;;;4.13;1.05;;;18.40;49.40;;;;;;5015649;28;20036;-71
2022/01/20 12:25:50;;;;;;;2.65;1.00;;;20.50;47.80;;;;;;5016436;28;20558;-72
2022/01/20 12:28:17;;;;;;;4.82;0.90;;;22.70;44.60;;;;;;5011567;28;20029;-72
2022/01/20 12:30:47;;;;;;;3.20;0.90;;;24.70;41.60;;;;;;5011187;28;20474;-72
2022/01/20 12:33:15;;;;;;;4.13;1.00;;;26.00;39.40;;;;;;5015159;28;20026;-72
2022/01/20 12:35:44;;;;;;;3.42;1.08;;;27.00;37.80;;;;;;5013032;28;20103;-71
2022/01/20 12:38:34;;;;;;;1.83;0.80;;;27.40;36.50;;;;;;5005404;28;20052;-72
2022/01/20 12:41:09;;;;;;;1.92;0.80;;;27.40;36.40;;;;;;5008155;28;20065;-71
2022/01/20 12:43:34;;;;;;;1.65;0.90;;;27.70;35.70;;;;;;5004091;28;20053;-71
2022/01/20 12:46:00;;;;;;;1.38;0.80;;;27.50;35.70;;;;;;5005170;28;20501;-71
2022/01/20 12:48:26;;;;;;;1.88;0.90;;;26.70;35.30;;;;;;5013706;28;20462;-71
2022/01/20 12:50:54;;;;;;;2.20;0.80;;;25.30;36.20;;;;;;5010584;28;20042;-72
2022/01/20 12:53:31;;;;;;;1.67;0.75;;;23.80;37.90;;;;;;5013159;28;20033;-73
2022/01/20 12:55:57;;;;;;;1.40;0.80;;;22.80;39.20;;;;;;5014663;28;20026;-72
2022/01/20 12:58:23;;;;;;;2.75;0.85;;;22.20;40.40;;;;;;5011048;28;20423;-73
2022/01/20 13:01:03;;;;;;;1.98;0.77;;;22.40;40.80;;;;;;5013598;28;20075;-72
2022/01/20 13:03:40;;;;;;;2.08;0.60;;;24.90;39.50;;;;;;5012535;28;20205;-72
2022/01/20 13:06:11;;;;;;;4.43;0.93;;;26.90;36.50;;;;;;5011655;28;20025;-71
2022/01/20 13:08:40;;;;;;;4.90;1.05;;;28.70;36.10;;;;;;5008934;28;20096;-72
2022/01/20 13:11:11;;;;;;;4.13;0.90;;;27.40;35.00;;;;;;5015664;28;20052;-73
2022/01/20 13:13:36;;;;;;;2.08;0.70;;;28.20;35.50;;;;;;5009902;28;20030;-72
2022/01/20 13:16:13;;;;;;;2.97;0.90;;;29.50;34.70;;;;;;5011322;28;20048;-72
2022/01/20 13:18:39;;;;;;;2.78;1.15;;;30.80;34.10;;;;;;5011387;28;20153;-71
2022/01/20 13:21:07;;;;;;;1.88;0.90;;;31.10;33.40;;;;;;5010762;28;20026;-71
2022/01/20 13:23:55;;;;;;;2.13;0.88;;;31.70;33.40;;;;;;5008607;28;20081;-72
2022/01/20 13:26:21;;;;;;;3.78;1.00;;;32.20;32.60;;;;;;5008072;28;20040;-72
2022/01/20 13:29:06;;;;;;;3.25;0.90;;;32.30;32.10;;;;;;5009601;28;20044;-73
2022/01/20 13:31:32;;;;;;;1.35;0.80;;;32.00;32.00;;;;;;5010279;28;20518;-73
2022/01/20 13:33:59;;;;;;;2.03;0.68;;;32.20;32.20;;;;;;5013028;28;20492;-73
2022/01/20 13:36:36;;;;;;;3.47;0.82;;;32.30;32.30;;;;;;5014468;28;20041;-72
2022/01/20 13:39:02;;;;;;;1.42;0.57;;;32.40;32.30;;;;;;5010275;28;20481;-73
2022/01/20 13:41:29;;;;;;;3.35;0.70;;;32.60;31.70;;;;;;5010809;28;20045;-72
2022/01/20 13:46:48;;;;;;;3.88;0.80;;;32.50;31.60;;;;;;5010885;28;20084;-74
2022/01/20 13:49:21;;;;;;;9.25;1.50;;;32.30;31.70;;;;;;5007151;28;20567;-74
2022/01/20 13:51:56;;;;;;;5.93;1.50;;;32.60;31.00;;;;;;5012496;28;20041;-73
2022/01/20 13:54:22;;;;;;;18.65;2.95;;;32.50;30.90;;;;;;5003101;28;20069;-73
2022/01/20 13:56:52;;;;;;;6.68;1.60;;;32.20;31.00;;;;;;5009973;28;20501;-73
2022/01/20 13:59:18;;;;;;;6.65;2.55;;;31.70;31.40;;;;;;5009520;28;20037;-74
2022/01/20 14:01:44;;;;;;;3.65;1.38;;;32.00;31.40;;;;;;5006755;28;20060;-73
2022/01/20 14:04:09;;;;;;;12.63;5.90;;;30.90;30.90;;;;;;5012349;28;20111;-73
2022/01/20 14:06:35;;;;;;;8.38;2.30;;;30.80;31.40;;;;;;5015762;28;20018;-72
2022/01/20 14:09:01;;;;;;;3.20;1.02;;;27.80;31.90;;;;;;5017445;28;20022;-74
2022/01/20 14:11:26;;;;;;;5.07;0.90;;;26.00;33.90;;;;;;5013320;28;20026;-74
2022/01/20 14:13:52;;;;;;;4.22;0.85;;;26.50;33.10;;;;;;5012255;28;20065;-74
2022/01/20 14:16:18;;;;;;;3.65;1.02;;;27.00;33.90;;;;;;5012260;28;20038;-72
2022/01/20 14:18:46;;;;;;;2.63;0.90;;;27.80;33.30;;;;;;5013036;28;20512;-72
2022/01/20 14:21:14;;;;;;;2.88;0.70;;;27.80;33.50;;;;;;5012583;28;20022;-73